createdAt,value
2019-05-17T00:01:09.577Z,25.40
2019-05-17T00:03:39.833Z,25.10
2019-05-17T00:06:10.651Z,24.92
2019-05-17T00:08:40.971Z,24.67
2019-05-17T00:11:11.141Z,25.37
2019-05-17T00:13:41.706Z,26.20
2019-05-17T00:16:12.095Z,24.82
2019-05-17T00:18:42.358Z,25.15
2019-05-17T00:21:12.988Z,24.67
2019-05-17T00:23:43.299Z,24.50
2019-05-17T00:26:13.521Z,25.10
2019-05-17T00:28:43.728Z,26.60
2019-05-17T00:31:14.243Z,25.90
2019-05-17T00:33:44.570Z,24.50
2019-05-17T00:36:17.620Z,24.80
2019-05-17T00:38:50.952Z,25.72
2019-05-17T00:41:18.556Z,25.30
2019-05-17T00:43:49.261Z,24.47
2019-05-17T00:46:19.488Z,22.67
2019-05-17T00:48:49.742Z,26.03
2019-05-17T00:51:20.124Z,26.52
2019-05-17T00:53:50.376Z,26.97
2019-05-17T00:56:20.709Z,25.77
2019-05-17T00:58:51.152Z,26.97
2019-05-17T01:01:21.434Z,25.83
2019-05-17T01:03:51.788Z,25.48
2019-05-17T01:06:22.600Z,24.18
2019-05-17T01:09:01.025Z,24.05
2019-05-17T01:11:27.081Z,23.27
2019-05-17T01:13:58.729Z,23.00
2019-05-17T01:16:30.924Z,23.65
2019-05-17T01:19:01.299Z,24.55
2019-05-17T01:21:31.844Z,23.35
2019-05-17T01:24:02.284Z,23.13
2019-05-17T01:26:32.907Z,22.50
2019-05-17T01:29:06.564Z,21.37
2019-05-17T01:31:37.351Z,22.37
2019-05-17T01:34:07.817Z,23.22
2019-05-17T01:36:38.307Z,22.07
2019-05-17T01:39:17.309Z,21.97
2019-05-17T01:41:40.444Z,21.17
2019-05-17T01:44:11.047Z,20.85
2019-05-17T01:46:42.685Z,20.50
2019-05-17T01:49:12.986Z,20.15
2019-05-17T01:51:43.198Z,20.77
2019-05-17T01:54:13.712Z,21.50
2019-05-17T01:56:45.892Z,20.37
2019-05-17T01:59:17.284Z,20.37
2019-05-17T02:01:48.904Z,20.90
2019-05-17T02:04:19.373Z,20.10
2019-05-17T02:06:50.465Z,22.13
2019-05-17T02:09:34.771Z,22.02
2019-05-17T02:11:57.070Z,22.70
2019-05-17T02:14:26.770Z,20.20
2019-05-17T02:16:57.324Z,20.08
2019-05-17T02:19:28.468Z,20.00
2019-05-17T02:21:58.832Z,20.10
2019-05-17T02:24:29.052Z,19.62
2019-05-17T02:26:59.156Z,20.20
2019-05-17T02:29:32.038Z,19.62
2019-05-17T02:32:03.829Z,18.92
2019-05-17T02:34:33.789Z,20.33
2019-05-17T02:37:04.410Z,20.57
2019-05-17T02:39:51.839Z,18.57
2019-05-17T02:42:06.591Z,19.80
2019-05-17T02:44:36.883Z,19.90
2019-05-17T02:47:07.413Z,18.60
2019-05-17T02:49:38.020Z,19.85
2019-05-17T02:52:08.224Z,18.57
2019-05-17T02:54:38.582Z,18.82
2019-05-17T02:57:08.899Z,20.23
2019-05-17T02:59:39.225Z,19.98
2019-05-17T03:02:12.332Z,22.30
2019-05-17T03:04:43.217Z,20.73
2019-05-17T03:07:14.083Z,19.87
2019-05-17T03:09:44.611Z,18.85
2019-05-17T03:12:15.300Z,18.20
2019-05-17T03:14:45.945Z,18.55
2019-05-17T03:17:16.524Z,18.02
2019-05-17T03:19:46.845Z,18.07
2019-05-17T03:22:17.280Z,18.27
2019-05-17T03:24:47.572Z,18.80
2019-05-17T03:27:17.914Z,18.73
2019-05-17T03:29:48.351Z,18.20
2019-05-17T03:32:19.080Z,17.57
2019-05-17T03:34:55.332Z,17.70
2019-05-17T03:37:30.077Z,18.13
2019-05-17T03:39:53.769Z,18.05
2019-05-17T03:42:24.007Z,17.10
2019-05-17T03:44:54.950Z,18.23
2019-05-17T03:47:25.174Z,17.83
2019-05-17T03:49:55.402Z,17.67
2019-05-17T03:52:25.886Z,17.50
2019-05-17T03:54:56.515Z,18.82
2019-05-17T03:57:26.924Z,18.03
2019-05-17T03:59:57.224Z,17.27
2019-05-17T04:02:27.800Z,16.60
2019-05-17T04:04:58.020Z,16.75
2019-05-17T04:07:28.330Z,17.07
2019-05-17T04:09:58.516Z,16.02
2019-05-17T04:12:28.746Z,16.42
2019-05-17T04:15:03.190Z,16.50
2019-05-17T04:17:32.805Z,16.50
2019-05-17T04:20:03.877Z,16.67
2019-05-17T04:22:35.936Z,15.63
2019-05-17T04:25:06.673Z,16.48
2019-05-17T04:27:37.607Z,16.80
2019-05-17T04:30:12.362Z,16.57
2019-05-17T04:32:45.374Z,16.48
2019-05-17T04:35:18.027Z,16.50
2019-05-17T04:37:52.810Z,16.57
2019-05-17T04:40:23.081Z,16.60
2019-05-17T04:42:55.860Z,16.27
2019-05-17T04:45:27.050Z,16.77
2019-05-17T04:47:58.459Z,16.82
2019-05-17T04:50:33.248Z,15.87
2019-05-17T04:53:03.759Z,15.80
2019-05-17T04:55:37.716Z,15.98
2019-05-17T04:58:13.438Z,16.80
2019-05-17T05:00:44.788Z,18.67
2019-05-17T05:03:16.823Z,15.65
2019-05-17T05:07:22.507Z,15.38
2019-05-17T05:09:52.537Z,15.15
2019-05-17T05:12:23.069Z,15.47
2019-05-17T05:14:53.749Z,15.32
2019-05-17T05:17:23.908Z,13.80
2019-05-17T05:19:54.189Z,16.62
2019-05-17T05:22:24.682Z,15.55
2019-05-17T05:24:55.051Z,16.25
2019-05-17T05:27:25.415Z,15.65
2019-05-17T05:29:55.921Z,16.07
2019-05-17T05:32:26.155Z,14.70
2019-05-17T05:34:56.518Z,15.85
2019-05-17T05:37:26.887Z,16.02
2019-05-17T05:39:57.214Z,16.32
2019-05-17T05:42:27.707Z,14.80
2019-05-17T05:44:58.009Z,15.68
2019-05-17T05:47:28.513Z,14.65
2019-05-17T05:49:58.888Z,14.98
2019-05-17T05:52:28.935Z,15.10
2019-05-17T05:55:01.371Z,15.70
2019-05-17T05:57:32.178Z,15.58
2019-05-17T06:00:02.555Z,15.38
2019-05-17T06:02:32.941Z,15.63
2019-05-17T06:05:03.546Z,15.70
2019-05-17T06:07:34.090Z,15.70
2019-05-17T06:10:04.315Z,15.77
2019-05-17T06:12:34.643Z,15.70
2019-05-17T06:15:06.730Z,14.70
2019-05-17T06:17:37.173Z,15.43
2019-05-17T06:20:08.409Z,18.62
2019-05-17T06:22:38.619Z,15.90
2019-05-17T06:25:09.283Z,14.70
2019-05-17T06:27:41.545Z,15.28
2019-05-17T06:30:14.943Z,13.95
2019-05-17T06:32:46.796Z,15.53
2019-05-17T06:35:17.385Z,16.13
2019-05-17T06:37:47.943Z,15.45
2019-05-17T06:40:18.434Z,15.03
2019-05-17T06:42:49.077Z,15.50
2019-05-17T06:45:21.935Z,14.83
2019-05-17T06:47:51.948Z,15.40
2019-05-17T06:50:23.646Z,15.20
2019-05-17T06:52:54.244Z,15.33
2019-05-17T06:55:24.681Z,14.98
2019-05-17T06:57:54.985Z,15.15
2019-05-17T07:00:26.344Z,16.00
2019-05-17T07:02:57.053Z,14.58
2019-05-17T07:05:29.338Z,15.83
2019-05-17T07:08:00.319Z,15.55
2019-05-17T07:10:31.469Z,15.28
2019-05-17T07:13:02.130Z,15.60
2019-05-17T07:15:43.685Z,15.03
2019-05-17T07:18:04.854Z,15.50
2019-05-17T07:20:35.257Z,14.97
2019-05-17T07:23:06.206Z,14.95
2019-05-17T07:25:36.780Z,15.40
2019-05-17T07:28:09.765Z,14.80
2019-05-17T07:30:39.966Z,16.05
2019-05-17T07:33:11.023Z,15.32
2019-05-17T07:35:41.467Z,16.05
2019-05-17T07:38:12.188Z,14.70
2019-05-17T07:40:43.839Z,15.08
2019-05-17T07:43:14.992Z,15.50
2019-05-17T07:45:45.601Z,15.00
2019-05-17T07:48:16.042Z,14.97
2019-05-17T07:50:46.785Z,17.07
2019-05-17T07:53:19.786Z,15.68
2019-05-17T07:55:50.592Z,18.48
2019-05-17T07:58:21.360Z,19.55
2019-05-17T08:00:51.879Z,21.23
2019-05-17T08:03:24.704Z,16.30
2019-05-17T08:05:59.999Z,15.03
2019-05-17T08:08:31.353Z,14.90
2019-05-17T08:11:02.013Z,14.03
2019-05-17T08:13:33.800Z,15.32
2019-05-17T08:16:04.324Z,15.72
2019-05-17T08:18:34.510Z,17.40
2019-05-17T08:21:06.242Z,14.90
2019-05-17T08:23:36.365Z,15.38
2019-05-17T08:26:06.917Z,13.67
2019-05-17T08:28:42.801Z,24.07
2019-05-17T08:31:13.340Z,30.17
2019-05-17T08:33:44.088Z,19.93
2019-05-17T08:36:14.355Z,15.35
2019-05-17T08:38:44.844Z,18.80
2019-05-17T08:41:15.046Z,14.98
2019-05-17T08:43:47.086Z,15.13
2019-05-17T08:46:19.925Z,15.75
2019-05-17T08:48:55.440Z,15.68
2019-05-17T08:53:07.091Z,14.75
2019-05-17T08:55:37.554Z,15.00
2019-05-17T08:58:10.278Z,14.40
2019-05-17T09:00:40.940Z,14.77
2019-05-17T09:03:11.523Z,14.70
2019-05-17T09:08:20.323Z,14.15
2019-05-17T09:10:50.442Z,13.73
2019-05-17T09:13:20.970Z,14.10
2019-05-17T09:15:51.859Z,16.45
2019-05-17T09:18:22.206Z,14.10
2019-05-17T09:20:53.027Z,14.30
2019-05-17T09:23:23.459Z,14.63
2019-05-17T09:25:56.181Z,15.20
2019-05-17T09:28:26.676Z,15.20
2019-05-17T09:30:59.681Z,15.58
2019-05-17T09:33:30.050Z,16.95
2019-05-17T09:36:01.085Z,15.23
2019-05-17T09:38:33.600Z,15.70
2019-05-17T09:41:04.575Z,14.93
2019-05-17T09:43:42.513Z,14.65
2019-05-17T09:46:13.827Z,14.98
2019-05-17T09:48:46.991Z,14.75
2019-05-17T09:51:16.579Z,14.83
2019-05-17T09:53:49.392Z,14.20
2019-05-17T09:56:20.684Z,14.25
2019-05-17T09:58:51.162Z,14.18
2019-05-17T10:01:21.990Z,14.00
2019-05-17T10:03:52.921Z,14.63
2019-05-17T10:06:23.493Z,17.73
2019-05-17T10:09:09.882Z,16.85
2019-05-17T10:11:40.503Z,15.30
2019-05-17T10:14:24.685Z,14.00
2019-05-17T10:16:42.498Z,14.25
2019-05-17T10:19:13.377Z,15.43
2019-05-17T10:21:43.783Z,16.27
2019-05-17T10:24:14.797Z,12.93
2019-05-17T10:26:45.949Z,13.38
2019-05-17T10:29:18.575Z,13.03
2019-05-17T10:34:17.292Z,13.45
2019-05-17T10:36:50.528Z,13.20
2019-05-17T10:39:19.441Z,13.57
2019-05-17T10:41:50.049Z,13.35
2019-05-17T10:44:20.462Z,13.40
2019-05-17T10:47:01.343Z,14.23
2019-05-17T10:49:49.770Z,13.83
2019-05-17T10:52:20.444Z,13.48
2019-05-17T10:55:55.020Z,13.18
2019-05-17T10:58:39.746Z,12.88
2019-05-17T11:01:10.385Z,12.90
2019-05-17T11:03:40.777Z,12.70
2019-05-17T11:06:11.136Z,12.90
2019-05-17T11:08:41.907Z,13.05
2019-05-17T11:11:12.433Z,13.80
2019-05-17T11:13:42.630Z,15.45
2019-05-17T11:16:13.012Z,15.90
2019-05-17T11:18:43.447Z,16.40
2019-05-17T11:21:13.750Z,16.48
2019-05-17T11:23:44.103Z,18.45
2019-05-17T11:26:14.432Z,17.95
2019-05-17T11:28:44.792Z,18.48
2019-05-17T11:31:15.115Z,20.32
2019-05-17T11:33:45.403Z,22.27
2019-05-17T11:36:15.939Z,23.57
2019-05-17T11:38:46.313Z,24.20
2019-05-17T11:41:21.757Z,25.32
2019-05-17T11:43:48.958Z,25.72
2019-05-17T11:46:19.246Z,25.97
2019-05-17T11:48:49.315Z,23.87
2019-05-17T11:51:19.710Z,20.37
2019-05-17T11:53:50.109Z,19.17
2019-05-17T11:56:20.417Z,18.98
2019-05-17T11:58:50.920Z,21.00
2019-05-17T12:01:21.225Z,21.48
2019-05-17T12:03:51.479Z,22.60
2019-05-17T12:06:22.134Z,21.12
2019-05-17T12:08:52.583Z,21.42
2019-05-17T12:11:22.724Z,20.33
2019-05-17T12:13:53.202Z,19.60
2019-05-17T12:16:23.365Z,20.08
2019-05-17T12:18:53.813Z,19.80
2019-05-17T12:21:24.158Z,19.40
2019-05-17T12:23:54.447Z,20.70
2019-05-17T12:26:25.086Z,19.75
2019-05-17T12:28:55.148Z,20.13
2019-05-17T12:31:25.737Z,21.35
2019-05-17T12:33:55.952Z,19.87
2019-05-17T12:36:26.418Z,18.90
2019-05-17T12:38:56.797Z,19.40
2019-05-17T12:41:27.126Z,19.87
2019-05-17T12:43:57.235Z,19.32
2019-05-17T12:46:27.776Z,18.57
2019-05-17T12:48:58.028Z,18.32
2019-05-17T12:51:28.243Z,18.37
2019-05-17T12:53:58.605Z,20.10
2019-05-17T12:56:28.916Z,20.10
2019-05-17T12:58:59.510Z,20.83
2019-05-17T13:01:29.847Z,20.82
2019-05-17T13:04:00.213Z,21.73
2019-05-17T13:06:30.738Z,22.70
2019-05-17T13:09:01.147Z,23.50
2019-05-17T13:11:31.704Z,22.98
2019-05-17T13:14:02.194Z,24.07
2019-05-17T13:16:32.595Z,23.60
2019-05-17T13:19:02.832Z,23.55
2019-05-17T13:21:33.248Z,23.95
2019-05-17T13:24:03.596Z,24.65
2019-05-17T13:26:33.791Z,23.57
2019-05-17T13:29:04.362Z,23.10
2019-05-17T13:31:34.580Z,24.92
2019-05-17T13:34:05.011Z,24.47
2019-05-17T13:36:35.406Z,24.12
2019-05-17T13:39:07.950Z,23.93
2019-05-17T13:41:38.152Z,23.25
2019-05-17T13:44:09.350Z,22.27
2019-05-17T13:46:39.763Z,22.00
2019-05-17T13:49:10.246Z,21.48
2019-05-17T13:51:40.437Z,22.22
2019-05-17T13:54:10.688Z,22.17
2019-05-17T13:57:28.630Z,22.53
2019-05-17T13:59:58.965Z,22.73
2019-05-17T14:02:29.290Z,21.52
2019-05-17T14:04:59.644Z,21.05
2019-05-17T14:07:29.822Z,19.98
2019-05-17T14:10:00.144Z,19.80
2019-05-17T14:12:30.409Z,19.62
2019-05-17T14:15:00.825Z,19.40
2019-05-17T14:17:30.778Z,19.15
2019-05-17T14:20:00.973Z,19.52
2019-05-17T14:22:31.281Z,19.23
2019-05-17T14:25:01.524Z,19.45
2019-05-17T14:29:49.623Z,19.30
2019-05-17T14:32:20.028Z,19.85
2019-05-17T14:34:50.347Z,19.75
2019-05-17T14:37:20.588Z,19.27
2019-05-17T14:39:50.778Z,19.70
2019-05-17T14:42:21.428Z,19.47
2019-05-17T14:44:51.794Z,18.92
2019-05-17T14:47:22.524Z,19.32
2019-05-17T14:49:52.883Z,19.20
2019-05-17T14:52:23.190Z,19.82
2019-05-17T14:54:53.410Z,18.87
2019-05-17T14:57:23.754Z,18.10
2019-05-17T14:59:54.269Z,18.50
2019-05-17T15:02:24.583Z,18.40
2019-05-17T15:05:46.730Z,18.30
2019-05-17T15:08:16.993Z,18.20
2019-05-17T15:10:47.499Z,17.70
2019-05-17T15:13:17.862Z,18.10
2019-05-17T15:15:48.223Z,18.52
2019-05-17T15:18:18.582Z,19.10
2019-05-17T15:20:49.026Z,19.65
2019-05-17T15:23:19.195Z,19.77
2019-05-17T15:25:49.568Z,20.45
2019-05-17T15:28:19.843Z,19.60
2019-05-17T15:30:50.167Z,21.20
2019-05-17T15:33:20.356Z,20.65
2019-05-17T15:35:50.651Z,20.52
2019-05-17T15:38:20.899Z,20.57
2019-05-17T15:40:51.319Z,20.63
2019-05-17T15:43:22.093Z,21.33
2019-05-17T15:45:52.627Z,19.87
2019-05-17T15:48:23.005Z,20.75
2019-05-17T15:50:53.301Z,20.65
2019-05-17T15:53:23.764Z,20.10
2019-05-17T15:55:54.166Z,20.97
2019-05-17T15:58:24.591Z,20.97
2019-05-17T16:00:54.899Z,20.53
2019-05-17T16:03:25.023Z,21.20
2019-05-17T16:05:55.507Z,20.90
2019-05-17T16:08:25.789Z,20.72
2019-05-17T16:10:56.324Z,20.68
2019-05-17T16:13:26.802Z,20.55
2019-05-17T16:15:57.114Z,20.88
2019-05-17T16:18:27.539Z,21.23
2019-05-17T16:20:57.822Z,21.07
2019-05-17T16:23:28.259Z,21.00
2019-05-17T16:25:58.773Z,20.70
2019-05-17T16:28:29.082Z,21.20
2019-05-17T16:30:59.550Z,21.17
2019-05-17T16:33:29.810Z,20.70
2019-05-17T16:36:00.191Z,20.43
2019-05-17T16:38:30.342Z,21.20
2019-05-17T16:41:00.643Z,22.00
2019-05-17T16:43:31.089Z,20.87
2019-05-17T16:46:01.830Z,21.30
2019-05-17T16:48:32.043Z,21.70
2019-05-17T16:51:02.428Z,21.47
2019-05-17T16:53:32.712Z,20.97
2019-05-17T16:56:02.897Z,20.60
2019-05-17T16:58:33.198Z,21.60
2019-05-17T17:01:03.812Z,22.05
2019-05-17T17:03:43.678Z,21.42
2019-05-17T17:06:05.907Z,22.42
2019-05-17T17:08:36.874Z,21.93
2019-05-17T17:11:07.291Z,22.62
2019-05-17T17:13:37.416Z,22.58
2019-05-17T17:16:07.612Z,22.52
2019-05-17T17:18:37.974Z,21.77
2019-05-17T17:21:08.487Z,21.73
2019-05-17T17:23:38.826Z,21.90
2019-05-17T17:26:09.274Z,21.07
2019-05-17T17:28:39.557Z,21.93
2019-05-17T17:31:12.420Z,21.87
2019-05-17T17:33:42.877Z,21.23
2019-05-17T17:36:13.149Z,21.87
2019-05-17T17:38:43.428Z,22.60
2019-05-17T17:41:13.791Z,21.35
2019-05-17T17:43:57.454Z,21.52
2019-05-17T17:46:15.885Z,21.17
2019-05-17T17:48:46.674Z,21.30
2019-05-17T17:51:17.194Z,21.55
2019-05-17T17:53:47.609Z,21.83
2019-05-17T17:56:17.846Z,21.02
2019-05-17T17:58:48.251Z,20.97
2019-05-17T18:01:18.606Z,20.27
2019-05-17T18:03:48.886Z,20.23
2019-05-17T18:06:19.217Z,19.90
2019-05-17T18:08:49.638Z,21.00
2019-05-17T18:11:19.858Z,20.40
2019-05-17T18:13:50.147Z,20.85
2019-05-17T18:16:20.690Z,21.48
2019-05-17T18:18:50.935Z,21.00
2019-05-17T18:21:21.222Z,20.60
2019-05-17T18:23:51.597Z,20.80
2019-05-17T18:26:21.902Z,20.97
2019-05-17T18:28:52.434Z,21.12
2019-05-17T18:31:22.550Z,21.87
2019-05-17T18:33:53.020Z,21.70
2019-05-17T18:36:23.565Z,21.97
2019-05-17T18:38:56.063Z,22.03
2019-05-17T18:41:26.434Z,21.50
2019-05-17T18:43:56.677Z,20.68
2019-05-17T18:46:27.406Z,19.92
2019-05-17T18:48:57.692Z,20.45
2019-05-17T18:51:27.966Z,20.65
2019-05-17T18:53:58.666Z,20.70
2019-05-17T18:56:29.017Z,20.57
2019-05-17T18:58:59.390Z,20.25
2019-05-17T19:01:32.434Z,20.45
2019-05-17T19:04:02.882Z,20.30
2019-05-17T19:06:33.323Z,20.88
2019-05-17T19:09:04.410Z,20.10
2019-05-17T19:11:34.797Z,20.72
2019-05-17T19:14:05.333Z,20.68
2019-05-17T19:16:35.746Z,20.63
2019-05-17T19:19:05.833Z,21.00
2019-05-17T19:21:36.028Z,20.60
2019-05-17T19:24:06.427Z,21.05
2019-05-17T19:26:36.749Z,20.60
2019-05-17T19:29:07.615Z,20.85
2019-05-17T19:31:37.976Z,19.82
2019-05-17T19:34:08.181Z,20.10
2019-05-17T19:36:41.367Z,21.20
2019-05-17T19:39:10.132Z,20.85
2019-05-17T19:41:40.457Z,20.43
2019-05-17T19:44:10.660Z,20.68
2019-05-17T19:46:41.018Z,20.30
2019-05-17T19:49:11.292Z,20.40
2019-05-17T19:51:41.586Z,20.53
2019-05-17T19:54:12.037Z,20.55
2019-05-17T19:56:42.441Z,21.07
2019-05-17T19:59:12.526Z,20.90
2019-05-17T20:01:42.938Z,20.95
2019-05-17T20:04:13.297Z,21.87
2019-05-17T20:06:43.567Z,22.40
2019-05-17T20:09:13.926Z,22.07
2019-05-17T20:11:44.343Z,22.67
2019-05-17T20:14:14.736Z,22.42
2019-05-17T20:16:44.855Z,22.90
2019-05-17T20:19:15.220Z,22.62
2019-05-17T20:21:45.644Z,21.40
2019-05-17T20:24:15.964Z,22.42
2019-05-17T20:26:46.192Z,22.37
2019-05-17T20:29:16.605Z,23.77
2019-05-17T20:31:46.806Z,23.22
2019-05-17T20:34:17.135Z,22.85
2019-05-17T20:36:47.757Z,23.22
2019-05-17T20:39:18.109Z,22.13
2019-05-17T20:41:48.709Z,21.90
2019-05-17T20:44:19.233Z,22.35
2019-05-17T20:46:49.420Z,21.80
2019-05-17T20:49:19.781Z,21.90
2019-05-17T20:51:49.982Z,21.60
2019-05-17T20:54:20.248Z,21.93
2019-05-17T20:56:50.492Z,21.68
2019-05-17T20:59:20.854Z,22.00
2019-05-17T21:01:51.148Z,22.37
2019-05-17T21:04:21.491Z,22.30
2019-05-17T21:06:51.839Z,23.22
2019-05-17T21:09:22.150Z,22.13
2019-05-17T21:11:52.575Z,21.95
2019-05-17T21:14:22.942Z,22.62
2019-05-17T21:16:53.293Z,22.00
2019-05-17T21:19:23.710Z,21.87
2019-05-17T21:21:53.997Z,27.42
2019-05-17T21:24:24.246Z,22.25
2019-05-17T21:26:54.691Z,22.02
2019-05-17T21:29:25.076Z,21.83
2019-05-17T21:31:55.303Z,21.95
2019-05-17T21:34:25.783Z,21.87
2019-05-17T21:36:56.036Z,22.10
2019-05-17T21:39:26.147Z,22.37
2019-05-17T21:41:56.514Z,21.87
2019-05-17T21:44:26.720Z,23.02
2019-05-17T21:47:04.419Z,23.62
2019-05-17T21:49:28.701Z,23.10
2019-05-17T21:51:59.144Z,23.65
2019-05-17T21:54:29.476Z,21.62
2019-05-17T21:56:59.763Z,22.70
2019-05-17T21:59:30.631Z,22.42
2019-05-17T22:02:00.897Z,22.13
2019-05-17T22:04:31.288Z,22.87
2019-05-17T22:07:01.513Z,22.62
2019-05-17T22:09:31.920Z,22.70
2019-05-17T22:12:03.771Z,23.57
2019-05-17T22:14:34.224Z,23.02
2019-05-17T22:17:04.648Z,23.65
2019-05-17T22:19:34.743Z,24.05
2019-05-17T22:22:05.051Z,24.35
2019-05-17T22:24:35.324Z,23.50
2019-05-17T22:27:06.397Z,24.55
2019-05-17T22:29:36.747Z,24.97
2019-05-17T22:32:07.180Z,24.43
2019-05-17T22:34:37.641Z,24.95
2019-05-17T22:37:07.818Z,25.40
2019-05-17T22:39:38.086Z,26.10
2019-05-17T22:42:08.544Z,26.33
2019-05-17T22:44:38.904Z,26.62
2019-05-17T22:47:09.267Z,25.68
2019-05-17T22:49:39.568Z,26.30
2019-05-17T22:52:10.004Z,26.60
2019-05-17T22:54:40.344Z,26.52
2019-05-17T22:57:10.793Z,26.50
2019-05-17T22:59:41.041Z,27.80
2019-05-17T23:02:11.439Z,26.77
2019-05-17T23:04:41.772Z,27.62
2019-05-17T23:07:12.002Z,27.62
2019-05-17T23:09:42.648Z,27.10
2019-05-17T23:12:12.983Z,28.27
2019-05-17T23:14:43.771Z,27.65
2019-05-17T23:17:14.376Z,28.05
2019-05-17T23:19:44.780Z,28.87
2019-05-17T23:22:15.105Z,38.20
2019-05-17T23:24:45.351Z,32.40
2019-05-17T23:27:15.833Z,33.78
2019-05-17T23:29:46.194Z,30.47
2019-05-17T23:32:16.397Z,30.62
2019-05-17T23:34:46.801Z,29.63
2019-05-17T23:37:17.089Z,29.92
2019-05-17T23:39:47.720Z,30.00
2019-05-17T23:42:17.909Z,28.83
2019-05-17T23:44:48.510Z,28.07
2019-05-17T23:47:18.871Z,27.20
2019-05-17T23:49:49.269Z,27.60
2019-05-17T23:52:20.008Z,27.82
2019-05-17T23:54:50.272Z,27.70
2019-05-17T23:57:20.569Z,27.42
2019-05-17T23:59:50.910Z,27.95
